createdAt,value
2018-07-15T00:01:29.458Z,16.00
2018-07-15T00:03:57.564Z,16.10
2018-07-15T00:06:25.682Z,16.00
2018-07-15T00:08:53.793Z,16.10
2018-07-15T00:11:21.914Z,16.10
2018-07-15T00:13:50.474Z,16.10
2018-07-15T00:16:18.608Z,16.10
2018-07-15T00:18:46.722Z,16.10
2018-07-15T00:21:14.830Z,16.00
2018-07-15T00:23:42.982Z,16.00
2018-07-15T00:26:11.122Z,15.90
2018-07-15T00:28:39.230Z,15.80
2018-07-15T00:31:07.490Z,15.80
2018-07-15T00:33:35.632Z,15.70
2018-07-15T00:36:03.739Z,15.70
2018-07-15T00:38:31.903Z,15.60
2018-07-15T00:41:00.023Z,15.60
2018-07-15T00:43:28.148Z,15.60
2018-07-15T00:45:56.246Z,15.60
2018-07-15T00:48:24.383Z,15.50
2018-07-15T00:50:52.469Z,15.50
2018-07-15T00:53:20.578Z,15.50
2018-07-15T00:55:48.709Z,15.40
2018-07-15T00:58:16.870Z,15.30
2018-07-15T01:00:50.319Z,15.20
2018-07-15T01:03:18.433Z,15.10
2018-07-15T01:05:46.541Z,15.00
2018-07-15T01:08:14.658Z,14.90
2018-07-15T01:10:42.853Z,14.80
2018-07-15T01:13:10.969Z,14.90
2018-07-15T01:15:39.082Z,14.90
2018-07-15T01:20:35.149Z,15.00
2018-07-15T01:23:03.258Z,14.90
2018-07-15T01:25:31.538Z,14.80
2018-07-15T01:27:59.769Z,14.80
2018-07-15T01:30:27.882Z,14.70
2018-07-15T01:32:56.002Z,14.70
2018-07-15T01:35:24.126Z,14.70
2018-07-15T01:37:52.252Z,14.80
2018-07-15T01:40:20.366Z,14.80
2018-07-15T01:42:48.513Z,14.90
2018-07-15T01:45:16.629Z,14.90
2018-07-15T01:47:44.878Z,14.80
2018-07-15T01:50:13.014Z,14.80
2018-07-15T01:52:41.157Z,14.80
2018-07-15T01:55:09.284Z,14.90
2018-07-15T01:57:37.421Z,15.00
2018-07-15T02:00:06.182Z,15.00
2018-07-15T02:02:34.658Z,15.00
2018-07-15T02:05:02.786Z,14.90
2018-07-15T02:07:30.906Z,14.80
2018-07-15T02:09:59.032Z,14.80
2018-07-15T02:12:27.146Z,14.80
2018-07-15T02:14:55.274Z,14.70
2018-07-15T02:17:23.386Z,14.70
2018-07-15T02:19:51.502Z,14.70
2018-07-15T02:22:19.614Z,14.70
2018-07-15T02:24:47.721Z,14.70
2018-07-15T02:27:15.846Z,14.70
2018-07-15T02:29:44.015Z,14.70
2018-07-15T02:32:12.119Z,14.70
2018-07-15T02:34:40.258Z,14.70
2018-07-15T02:37:08.356Z,14.70
2018-07-15T02:39:36.454Z,14.70
2018-07-15T02:42:04.541Z,14.70
2018-07-15T02:44:32.658Z,14.70
2018-07-15T02:47:00.866Z,14.60
2018-07-15T02:49:29.080Z,14.70
2018-07-15T02:51:57.184Z,14.70
2018-07-15T02:54:25.301Z,14.80
2018-07-15T02:56:53.386Z,14.90
2018-07-15T02:59:21.494Z,15.00
2018-07-15T03:01:49.610Z,15.10
2018-07-15T03:04:17.742Z,15.10
2018-07-15T03:06:45.833Z,15.20
2018-07-15T03:09:13.934Z,15.40
2018-07-15T03:11:42.031Z,15.40
2018-07-15T03:14:10.141Z,15.50
2018-07-15T03:16:38.243Z,15.50
2018-07-15T03:19:06.346Z,15.50
2018-07-15T03:21:34.459Z,15.30
2018-07-15T03:24:02.582Z,15.20
2018-07-15T03:26:30.676Z,15.20
2018-07-15T03:28:58.775Z,15.20
2018-07-15T03:31:26.883Z,15.30
2018-07-15T03:33:55.010Z,15.40
2018-07-15T03:36:23.126Z,15.50
2018-07-15T03:38:51.269Z,15.70
2018-07-15T03:41:19.405Z,15.70
2018-07-15T03:43:47.523Z,15.70
2018-07-15T03:46:15.638Z,15.70
2018-07-15T03:48:43.779Z,15.70
2018-07-15T03:51:11.902Z,15.70
2018-07-15T03:53:40.029Z,15.80
2018-07-15T03:56:08.146Z,15.80
2018-07-15T03:58:36.273Z,15.70
2018-07-15T04:01:04.402Z,15.50
2018-07-15T04:03:32.522Z,15.50
2018-07-15T04:06:00.655Z,15.40
2018-07-15T04:08:29.099Z,15.40
2018-07-15T04:10:57.214Z,15.30
2018-07-15T04:13:25.329Z,15.30
2018-07-15T04:15:53.442Z,15.60
2018-07-15T04:18:21.555Z,16.10
2018-07-15T04:20:49.708Z,16.70
2018-07-15T04:23:17.809Z,17.30
2018-07-15T04:25:45.935Z,17.80
2018-07-15T04:28:14.059Z,18.20
2018-07-15T04:30:42.194Z,18.30
2018-07-15T04:33:10.354Z,18.20
2018-07-15T04:35:38.507Z,18.10
2018-07-15T04:38:06.642Z,18.00
2018-07-15T04:40:34.758Z,17.90
2018-07-15T04:43:02.880Z,17.90
2018-07-15T04:45:31.027Z,17.90
2018-07-15T04:47:59.136Z,17.90
2018-07-15T04:50:27.274Z,17.90
2018-07-15T04:52:55.386Z,17.90
2018-07-15T04:55:23.542Z,17.90
2018-07-15T04:57:51.647Z,18.00
2018-07-15T05:00:19.754Z,18.00
2018-07-15T05:02:47.870Z,18.00
2018-07-15T05:05:15.982Z,18.00
2018-07-15T05:07:44.137Z,18.00
2018-07-15T05:10:12.254Z,18.00
2018-07-15T05:12:40.370Z,18.10
2018-07-15T05:15:08.498Z,18.10
2018-07-15T05:17:36.619Z,18.20
2018-07-15T05:20:04.806Z,18.60
2018-07-15T05:22:32.933Z,19.10
2018-07-15T05:25:01.099Z,19.80
2018-07-15T05:27:29.166Z,20.50
2018-07-15T05:29:57.274Z,21.00
2018-07-15T05:32:25.420Z,21.20
2018-07-15T05:34:53.564Z,21.40
2018-07-15T05:37:21.674Z,21.50
2018-07-15T05:39:49.790Z,21.60
2018-07-15T05:42:17.945Z,21.60
2018-07-15T05:44:46.058Z,21.60
2018-07-15T05:47:14.174Z,21.60
2018-07-15T05:49:42.278Z,21.60
2018-07-15T05:52:10.427Z,21.50
2018-07-15T05:54:38.580Z,21.50
2018-07-15T05:57:06.726Z,21.40
2018-07-15T05:59:34.838Z,21.40
2018-07-15T06:02:02.968Z,21.40
2018-07-15T06:04:31.076Z,21.50
2018-07-15T06:06:59.210Z,21.50
2018-07-15T06:09:27.334Z,21.60
2018-07-15T06:11:55.469Z,21.60
2018-07-15T06:14:23.570Z,21.60
2018-07-15T06:16:51.698Z,21.50
2018-07-15T06:19:19.799Z,21.50
2018-07-15T06:21:47.958Z,21.50
2018-07-15T06:24:16.095Z,21.50
2018-07-15T06:26:44.223Z,21.50
2018-07-15T06:29:12.330Z,21.50
2018-07-15T06:31:40.519Z,21.40
2018-07-15T06:34:08.582Z,21.40
2018-07-15T06:36:36.813Z,21.40
2018-07-15T06:39:06.219Z,21.40
2018-07-15T06:41:34.366Z,21.40
2018-07-15T06:44:02.476Z,21.50
2018-07-15T06:46:30.612Z,21.60
2018-07-15T06:48:58.753Z,21.60
2018-07-15T06:51:26.888Z,21.60
2018-07-15T06:53:55.003Z,21.50
2018-07-15T06:56:23.152Z,21.40
2018-07-15T06:58:51.291Z,21.40
2018-07-15T07:01:19.401Z,21.40
2018-07-15T07:03:47.543Z,21.50
2018-07-15T07:06:15.646Z,21.50
2018-07-15T07:08:43.775Z,21.60
2018-07-15T07:11:11.886Z,21.80
2018-07-15T07:13:40.007Z,21.90
2018-07-15T07:16:08.174Z,22.00
2018-07-15T07:18:36.286Z,22.10
2018-07-15T07:21:04.399Z,22.20
2018-07-15T07:23:32.517Z,22.40
2018-07-15T07:26:00.779Z,22.50
2018-07-15T07:28:28.901Z,22.50
2018-07-15T07:30:57.066Z,22.60
2018-07-15T07:33:25.170Z,22.70
2018-07-15T07:35:53.268Z,22.80
2018-07-15T07:38:21.398Z,22.80
2018-07-15T07:40:49.494Z,22.90
2018-07-15T07:43:17.590Z,23.00
2018-07-15T07:45:45.679Z,23.00
2018-07-15T07:48:13.808Z,23.00
2018-07-15T07:50:41.894Z,23.10
2018-07-15T07:53:10.009Z,23.10
2018-07-15T07:55:38.090Z,23.10
2018-07-15T07:58:06.214Z,23.20
2018-07-15T08:00:34.302Z,23.20
2018-07-15T08:03:02.394Z,23.30
2018-07-15T08:05:30.538Z,23.40
2018-07-15T08:07:58.659Z,23.50
2018-07-15T08:10:26.750Z,23.60
2018-07-15T08:12:54.851Z,23.80
2018-07-15T08:15:23.098Z,23.90
2018-07-15T08:17:51.104Z,23.90
2018-07-15T08:20:19.222Z,23.90
2018-07-15T08:22:47.322Z,24.00
2018-07-15T08:25:15.435Z,24.10
2018-07-15T08:30:22.778Z,24.20
2018-07-15T08:32:50.910Z,24.20
2018-07-15T08:35:19.012Z,24.30
2018-07-15T08:37:47.158Z,24.40
2018-07-15T08:40:15.326Z,24.50
2018-07-15T08:42:43.458Z,24.60
2018-07-15T08:45:11.567Z,24.80
2018-07-15T08:47:39.781Z,25.00
2018-07-15T08:50:08.086Z,25.10
2018-07-15T08:52:36.182Z,25.30
2018-07-15T08:55:04.358Z,25.30
2018-07-15T08:57:32.460Z,25.40
2018-07-15T09:00:00.574Z,25.50
2018-07-15T09:02:28.725Z,25.50
2018-07-15T09:04:56.817Z,25.50
2018-07-15T09:07:24.911Z,25.70
2018-07-15T09:09:53.046Z,25.80
2018-07-15T09:12:21.133Z,26.00
2018-07-15T09:14:49.271Z,26.00
2018-07-15T09:17:17.391Z,26.10
2018-07-15T09:19:45.503Z,26.20
2018-07-15T09:24:41.498Z,26.20
2018-07-15T09:27:09.829Z,26.30
2018-07-15T09:29:37.942Z,26.40
2018-07-15T09:32:06.050Z,26.50
2018-07-15T09:34:34.179Z,26.60
2018-07-15T09:37:02.258Z,26.70
2018-07-15T09:39:30.366Z,26.60
2018-07-15T09:41:58.473Z,26.60
2018-07-15T09:44:26.665Z,26.80
2018-07-15T09:46:54.850Z,27.00
2018-07-15T09:49:23.038Z,27.10
2018-07-15T09:51:51.323Z,27.30
2018-07-15T09:54:19.423Z,27.40
2018-07-15T09:56:47.518Z,27.40
2018-07-15T09:59:15.712Z,27.40
2018-07-15T10:01:43.826Z,27.30
2018-07-15T10:04:11.930Z,27.30
2018-07-15T10:06:40.028Z,27.30
2018-07-15T10:09:08.131Z,27.40
2018-07-15T10:11:36.218Z,27.40
2018-07-15T10:14:04.350Z,27.50
2018-07-15T10:16:32.450Z,27.50
2018-07-15T10:19:00.639Z,27.30
2018-07-15T10:21:28.704Z,27.20
2018-07-15T10:23:56.853Z,26.90
2018-07-15T10:26:25.039Z,26.70
2018-07-15T10:28:53.122Z,25.80
2018-07-15T10:31:21.217Z,24.90
2018-07-15T10:33:49.318Z,24.40
2018-07-15T10:36:17.409Z,24.10
2018-07-15T10:38:45.510Z,23.90
2018-07-15T10:41:13.619Z,23.70
2018-07-15T10:43:41.714Z,23.60
2018-07-15T10:46:09.821Z,23.30
2018-07-15T10:48:38.023Z,21.40
2018-07-15T10:51:06.165Z,21.30
2018-07-15T10:53:36.636Z,20.30
2018-07-15T10:56:06.464Z,19.80
2018-07-15T10:58:35.683Z,19.30
2018-07-15T11:01:06.334Z,18.70
2018-07-15T11:03:40.264Z,18.30
2018-07-15T11:06:10.391Z,17.90
2018-07-15T11:08:38.936Z,17.60
2018-07-15T11:11:07.438Z,17.60
2018-07-15T11:13:40.613Z,17.80
2018-07-15T11:16:09.438Z,17.80
2018-07-15T11:18:40.157Z,17.50
2018-07-15T11:21:14.922Z,17.50
2018-07-15T11:23:44.034Z,17.30
2018-07-15T11:26:12.389Z,17.10
2018-07-15T11:28:42.458Z,17.20
2018-07-15T11:31:13.791Z,17.20
2018-07-15T11:33:45.732Z,17.20
2018-07-15T11:36:19.959Z,17.30
2018-07-15T11:38:49.600Z,17.30
2018-07-15T11:41:18.131Z,17.30
2018-07-15T11:43:51.879Z,17.30
2018-07-15T11:49:25.559Z,17.40
2018-07-15T11:51:53.715Z,17.40
2018-07-15T11:54:21.942Z,17.60
2018-07-15T11:56:50.075Z,17.60
2018-07-15T11:59:18.224Z,17.80
2018-07-15T12:01:46.385Z,17.90
2018-07-15T12:04:14.481Z,18.10
2018-07-15T12:06:42.695Z,18.10
2018-07-15T12:09:10.842Z,18.20
2018-07-15T12:11:39.002Z,18.40
2018-07-15T12:14:07.135Z,18.50
2018-07-15T12:16:35.273Z,18.60
2018-07-15T12:19:03.386Z,18.60
2018-07-15T12:21:31.539Z,18.80
2018-07-15T12:23:59.706Z,19.00
2018-07-15T12:26:28.642Z,19.20
2018-07-15T12:29:03.166Z,19.40
2018-07-15T12:31:31.306Z,19.60
2018-07-15T12:33:59.431Z,19.90
2018-07-15T12:36:27.615Z,20.20
2018-07-15T12:38:55.738Z,20.50
2018-07-15T12:41:23.850Z,20.70
2018-07-15T12:43:51.960Z,20.80
2018-07-15T12:46:20.075Z,20.90
2018-07-15T12:48:48.235Z,21.00
2018-07-15T12:51:16.381Z,21.10
2018-07-15T12:53:44.514Z,21.20
2018-07-15T12:56:12.983Z,21.30
2018-07-15T12:58:41.106Z,21.30
2018-07-15T13:01:09.281Z,21.40
2018-07-15T13:03:37.443Z,21.40
2018-07-15T13:06:05.525Z,21.50
2018-07-15T13:08:33.690Z,21.60
2018-07-15T13:11:01.856Z,21.60
2018-07-15T13:13:29.997Z,21.70
2018-07-15T13:15:58.126Z,21.70
2018-07-15T13:18:26.231Z,21.80
2018-07-15T13:20:54.374Z,21.90
2018-07-15T13:23:22.530Z,22.10
2018-07-15T13:25:50.719Z,22.20
2018-07-15T13:28:18.847Z,22.40
2018-07-15T13:30:47.014Z,22.70
2018-07-15T13:33:15.168Z,22.90
2018-07-15T13:35:43.303Z,23.10
2018-07-15T13:38:11.419Z,23.30
2018-07-15T13:40:39.561Z,23.40
2018-07-15T13:43:07.659Z,23.50
2018-07-15T13:45:35.761Z,23.50
2018-07-15T13:48:03.889Z,23.70
2018-07-15T13:50:32.062Z,23.80
2018-07-15T13:53:00.186Z,24.00
2018-07-15T13:55:28.289Z,24.00
2018-07-15T13:57:56.402Z,24.10
2018-07-15T14:00:24.506Z,24.20
2018-07-15T14:05:20.531Z,24.00
2018-07-15T14:07:48.646Z,24.00
2018-07-15T14:10:16.834Z,24.00
2018-07-15T14:12:44.991Z,24.00
2018-07-15T14:15:13.109Z,24.00
2018-07-15T14:17:41.206Z,24.00
2018-07-15T14:20:10.034Z,24.10
2018-07-15T14:22:38.135Z,24.20
2018-07-15T14:25:06.296Z,24.10
2018-07-15T14:27:34.733Z,24.10
2018-07-15T14:30:04.563Z,24.20
2018-07-15T14:32:32.664Z,24.10
2018-07-15T14:35:00.805Z,24.10
2018-07-15T14:37:28.980Z,24.00
2018-07-15T14:39:57.881Z,24.00
2018-07-15T14:42:27.628Z,23.90
2018-07-15T14:44:56.168Z,23.80
2018-07-15T14:47:25.023Z,23.70
2018-07-15T14:49:54.200Z,23.60
2018-07-15T14:52:23.239Z,23.50
2018-07-15T14:54:51.355Z,23.50
2018-07-15T14:57:20.281Z,23.40
2018-07-15T14:59:49.082Z,23.30
2018-07-15T15:02:17.210Z,23.20
2018-07-15T15:04:45.396Z,23.10
2018-07-15T15:07:13.737Z,23.10
2018-07-15T15:09:41.856Z,23.00
2018-07-15T15:12:10.011Z,23.00
2018-07-15T15:14:38.186Z,23.00
2018-07-15T15:17:06.395Z,23.10
2018-07-15T15:19:34.837Z,23.10
2018-07-15T15:22:04.803Z,23.10
2018-07-15T15:24:33.772Z,23.20
2018-07-15T15:27:02.064Z,23.40
2018-07-15T15:29:30.482Z,23.50
2018-07-15T15:31:59.284Z,23.50
2018-07-15T15:34:36.276Z,23.70
2018-07-15T15:37:05.412Z,23.70
2018-07-15T15:39:36.634Z,23.80
2018-07-15T15:42:07.255Z,23.70
2018-07-15T15:44:36.094Z,23.70
2018-07-15T15:47:07.623Z,23.80
2018-07-15T15:49:36.281Z,23.90
2018-07-15T15:52:05.017Z,23.80
2018-07-15T15:54:33.396Z,23.70
2018-07-15T15:57:03.924Z,23.70
2018-07-15T15:59:34.860Z,23.70
2018-07-15T16:02:05.312Z,23.60
2018-07-15T16:04:35.348Z,23.60
2018-07-15T16:07:03.538Z,23.70
2018-07-15T16:09:31.674Z,23.60
2018-07-15T16:11:59.848Z,23.50
2018-07-15T16:14:28.023Z,23.40
2018-07-15T16:16:56.155Z,23.20
2018-07-15T16:19:24.267Z,23.20
2018-07-15T16:21:52.398Z,23.00
2018-07-15T16:24:20.535Z,22.90
2018-07-15T16:26:48.670Z,22.80
2018-07-15T16:29:17.435Z,22.70
2018-07-15T16:31:47.282Z,22.50
2018-07-15T16:34:16.352Z,22.50
2018-07-15T16:36:48.988Z,22.50
2018-07-15T16:39:29.030Z,22.40
2018-07-15T16:41:57.152Z,22.40
2018-07-15T16:44:25.294Z,22.30
2018-07-15T16:46:53.416Z,22.20
2018-07-15T16:49:23.712Z,22.10
2018-07-15T16:51:54.602Z,22.10
2018-07-15T16:54:25.028Z,22.10
2018-07-15T16:56:54.514Z,22.00
2018-07-15T16:59:22.610Z,21.90
2018-07-15T17:01:50.728Z,21.90
2018-07-15T17:04:18.858Z,21.80
2018-07-15T17:06:47.036Z,21.70
2018-07-15T17:09:15.103Z,21.60
2018-07-15T17:11:43.251Z,21.50
2018-07-15T17:14:11.485Z,21.50
2018-07-15T17:16:39.582Z,21.40
2018-07-15T17:19:07.731Z,21.40
2018-07-15T17:21:35.862Z,21.40
2018-07-15T17:24:03.985Z,21.40
2018-07-15T17:26:33.067Z,21.50
2018-07-15T17:29:01.170Z,21.50
2018-07-15T17:31:29.333Z,21.60
2018-07-15T17:33:57.451Z,21.60
2018-07-15T17:36:25.619Z,21.60
2018-07-15T17:38:53.767Z,21.60
2018-07-15T17:41:21.917Z,21.60
2018-07-15T17:43:50.174Z,21.50
2018-07-15T17:46:18.365Z,21.50
2018-07-15T17:48:46.462Z,21.50
2018-07-15T17:51:14.600Z,21.40
2018-07-15T17:53:42.690Z,21.40
2018-07-15T17:56:10.879Z,21.30
2018-07-15T17:58:39.152Z,21.20
2018-07-15T18:01:07.190Z,21.20
2018-07-15T18:03:35.430Z,21.10
2018-07-15T18:06:03.542Z,21.00
2018-07-15T18:08:31.654Z,21.00
2018-07-15T18:10:59.765Z,20.90
2018-07-15T18:13:27.871Z,20.90
2018-07-15T18:15:56.006Z,20.80
2018-07-15T18:18:24.113Z,20.80
2018-07-15T18:20:52.244Z,20.80
2018-07-15T18:23:20.320Z,20.80
2018-07-15T18:25:48.486Z,20.80
2018-07-15T18:28:16.589Z,20.80
2018-07-15T18:30:44.705Z,20.80
2018-07-15T18:33:12.808Z,20.80
2018-07-15T18:35:40.930Z,20.70
2018-07-15T18:38:09.051Z,20.70
2018-07-15T18:40:37.158Z,20.60
2018-07-15T18:43:05.307Z,20.60
2018-07-15T18:45:33.426Z,20.60
2018-07-15T18:48:01.525Z,20.50
2018-07-15T18:50:29.665Z,20.50
2018-07-15T18:52:57.783Z,20.40
2018-07-15T18:55:25.904Z,20.40
2018-07-15T18:57:54.421Z,20.30
2018-07-15T19:00:22.534Z,20.20
2018-07-15T19:02:50.758Z,20.20
2018-07-15T19:05:18.887Z,20.20
2018-07-15T19:07:47.059Z,20.10
2018-07-15T19:10:15.157Z,20.00
2018-07-15T19:12:43.465Z,20.00
2018-07-15T19:15:11.439Z,19.90
2018-07-15T19:17:39.650Z,19.60
2018-07-15T19:20:07.774Z,19.40
2018-07-15T19:22:35.910Z,19.30
2018-07-15T19:25:04.031Z,19.20
2018-07-15T19:27:32.162Z,19.10
2018-07-15T19:30:00.283Z,19.00
2018-07-15T19:32:29.201Z,18.90
2018-07-15T19:34:59.084Z,18.90
2018-07-15T19:37:29.558Z,18.80
2018-07-15T19:39:58.922Z,18.80
2018-07-15T19:42:27.373Z,18.70
2018-07-15T19:44:56.027Z,18.70
2018-07-15T19:47:25.539Z,18.60
2018-07-15T19:49:55.320Z,18.60
2018-07-15T19:52:24.888Z,18.60
2018-07-15T19:54:55.540Z,18.50
2018-07-15T19:57:26.412Z,18.50
2018-07-15T19:59:57.676Z,18.50
2018-07-15T20:02:27.580Z,18.50
2018-07-15T20:04:57.307Z,18.50
2018-07-15T20:07:25.414Z,18.50
2018-07-15T20:09:53.798Z,18.40
2018-07-15T20:12:22.404Z,18.40
2018-07-15T20:14:51.459Z,18.40
2018-07-15T20:17:23.473Z,18.40
2018-07-15T20:19:51.681Z,18.40
2018-07-15T20:22:19.727Z,18.40
2018-07-15T20:24:47.838Z,18.40
2018-07-15T20:27:15.948Z,18.20
2018-07-15T20:29:45.782Z,17.80
2018-07-15T20:32:20.584Z,17.70
2018-07-15T20:34:55.001Z,17.70
2018-07-15T20:37:24.909Z,17.60
2018-07-15T20:39:53.966Z,17.50
2018-07-15T20:42:22.485Z,17.50
2018-07-15T20:44:53.191Z,17.40
2018-07-15T20:47:24.156Z,17.40
2018-07-15T20:49:52.305Z,17.30
2018-07-15T20:52:20.416Z,17.30
2018-07-15T20:54:48.546Z,17.30
2018-07-15T20:57:16.650Z,17.40
2018-07-15T20:59:44.766Z,17.30
2018-07-15T21:02:12.935Z,17.40
2018-07-15T21:04:41.030Z,17.40
2018-07-15T21:07:09.114Z,17.40
2018-07-15T21:09:37.288Z,17.40
2018-07-15T21:12:05.433Z,17.30
2018-07-15T21:14:33.531Z,17.30
2018-07-15T21:17:01.677Z,17.40
2018-07-15T21:19:29.778Z,17.40
2018-07-15T21:21:57.946Z,17.50
2018-07-15T21:24:26.038Z,17.60
2018-07-15T21:26:54.173Z,17.60
2018-07-15T21:29:22.283Z,17.60
2018-07-15T21:31:50.390Z,17.60
2018-07-15T21:34:18.537Z,17.60
2018-07-15T21:36:46.634Z,17.50
2018-07-15T21:39:14.754Z,17.50
2018-07-15T21:41:42.909Z,17.50
2018-07-15T21:44:11.032Z,17.50
2018-07-15T21:46:39.082Z,17.50
2018-07-15T21:49:07.274Z,17.50
2018-07-15T21:51:35.398Z,17.40
2018-07-15T21:54:03.648Z,17.50
2018-07-15T21:56:31.794Z,17.50
2018-07-15T21:58:59.912Z,17.50
2018-07-15T22:01:39.078Z,17.50
2018-07-15T22:04:07.895Z,17.50
2018-07-15T22:06:47.479Z,17.50
2018-07-15T22:09:27.578Z,17.60
2018-07-15T22:11:55.778Z,17.60
2018-07-15T22:14:25.974Z,17.60
2018-07-15T22:16:54.124Z,17.50
2018-07-15T22:19:22.251Z,17.40
2018-07-15T22:21:50.554Z,17.40
2018-07-15T22:24:18.724Z,17.30
2018-07-15T22:26:46.858Z,17.40
2018-07-15T22:29:15.007Z,17.40
2018-07-15T22:34:11.066Z,17.50
2018-07-15T22:36:39.170Z,17.50
2018-07-15T22:39:07.794Z,17.50
2018-07-15T22:41:36.386Z,17.50
2018-07-15T22:44:04.852Z,17.50
2018-07-15T22:46:32.944Z,17.50
2018-07-15T22:49:01.034Z,17.60
2018-07-15T22:51:29.162Z,17.50
2018-07-15T22:53:57.254Z,17.60
2018-07-15T22:56:25.362Z,17.60
2018-07-15T22:58:53.450Z,17.50
2018-07-15T23:01:21.558Z,17.50
2018-07-15T23:03:49.691Z,17.40
2018-07-15T23:06:19.235Z,17.50
2018-07-15T23:08:47.350Z,17.50
2018-07-15T23:11:15.459Z,17.50
2018-07-15T23:13:43.558Z,17.50
2018-07-15T23:16:11.649Z,17.60
2018-07-15T23:18:39.739Z,17.60
2018-07-15T23:21:07.838Z,17.60
2018-07-15T23:23:35.945Z,17.60
2018-07-15T23:26:04.061Z,17.60
2018-07-15T23:28:32.145Z,17.60
2018-07-15T23:31:00.254Z,17.70
2018-07-15T23:33:28.346Z,17.70
2018-07-15T23:35:56.463Z,17.70
2018-07-15T23:38:24.568Z,17.70
2018-07-15T23:40:52.704Z,17.70
2018-07-15T23:43:20.814Z,17.60
2018-07-15T23:45:48.978Z,17.60
2018-07-15T23:48:17.098Z,17.60
2018-07-15T23:50:45.252Z,17.60
2018-07-15T23:53:13.338Z,17.60
2018-07-15T23:55:41.451Z,17.60
2018-07-15T23:58:09.541Z,17.60
